createdAt,value
2019-01-29T00:01:35.378Z,94158.00
2019-01-29T00:04:05.901Z,94160.00
2019-01-29T00:06:35.791Z,94161.00
2019-01-29T00:09:10.016Z,94155.00
2019-01-29T00:11:40.146Z,94161.00
2019-01-29T00:14:10.343Z,94157.00
2019-01-29T00:16:41.286Z,94154.00
2019-01-29T00:19:11.325Z,94167.00
2019-01-29T00:21:41.471Z,94155.00
2019-01-29T00:24:11.399Z,94163.00
2019-01-29T00:26:41.390Z,94178.00
2019-01-29T00:29:11.367Z,94173.00
2019-01-29T00:31:41.361Z,94167.00
2019-01-29T00:34:11.436Z,94167.00
2019-01-29T00:36:41.671Z,94168.00
2019-01-29T00:39:11.746Z,94168.00
2019-01-29T00:41:42.419Z,94194.00
2019-01-29T00:44:12.481Z,94178.00
2019-01-29T00:46:42.676Z,94187.00
2019-01-29T00:49:12.821Z,94185.00
2019-01-29T00:51:42.967Z,94204.00
2019-01-29T00:54:13.017Z,94197.00
2019-01-29T00:56:43.141Z,94208.00
2019-01-29T00:59:13.378Z,94200.00
2019-01-29T01:01:43.577Z,94214.00
2019-01-29T01:04:13.614Z,94210.00
2019-01-29T01:06:44.768Z,94210.00
2019-01-29T01:09:14.867Z,94214.00
2019-01-29T01:11:44.856Z,94214.00
2019-01-29T01:14:14.797Z,94227.00
2019-01-29T01:16:44.805Z,94238.00
2019-01-29T01:19:14.900Z,94231.00
2019-01-29T01:21:45.001Z,94236.00
2019-01-29T01:24:15.039Z,94242.00
2019-01-29T01:26:44.949Z,94246.00
2019-01-29T01:29:14.927Z,94253.00
2019-01-29T01:31:44.839Z,94251.00
2019-01-29T01:34:14.839Z,94239.00
2019-01-29T01:36:44.970Z,94266.00
2019-01-29T01:39:14.942Z,94250.00
2019-01-29T01:41:44.900Z,94252.00
2019-01-29T01:44:14.978Z,94260.00
2019-01-29T01:46:44.911Z,94251.00
2019-01-29T01:49:14.797Z,94272.00
2019-01-29T01:51:44.779Z,94264.00
2019-01-29T01:54:14.780Z,94263.00
2019-01-29T01:56:44.719Z,94269.00
2019-01-29T01:59:14.800Z,94266.00
2019-01-29T02:01:44.761Z,94267.00
2019-01-29T02:04:14.839Z,94281.00
2019-01-29T02:06:44.928Z,94277.00
2019-01-29T02:09:15.018Z,94270.00
2019-01-29T02:11:45.188Z,94283.00
2019-01-29T02:14:15.241Z,94285.00
2019-01-29T02:16:45.151Z,94285.00
2019-01-29T02:19:15.244Z,94295.00
2019-01-29T02:21:45.165Z,94299.00
2019-01-29T02:24:15.235Z,94290.00
2019-01-29T02:26:45.380Z,94308.00
2019-01-29T02:29:15.318Z,94306.00
2019-01-29T02:31:45.241Z,94326.00
2019-01-29T02:34:15.180Z,94322.00
2019-01-29T02:36:45.151Z,94325.00
2019-01-29T02:39:16.233Z,94319.00
2019-01-29T02:41:46.237Z,94312.00
2019-01-29T02:44:16.170Z,94319.00
2019-01-29T02:46:46.120Z,94331.00
2019-01-29T02:49:16.224Z,94335.00
2019-01-29T02:51:46.213Z,94327.00
2019-01-29T02:54:16.270Z,94337.00
2019-01-29T02:56:47.394Z,94342.00
2019-01-29T02:59:17.360Z,94345.00
2019-01-29T03:01:47.249Z,94337.00
2019-01-29T03:04:17.227Z,94331.00
2019-01-29T03:06:47.224Z,94344.00
2019-01-29T03:09:17.200Z,94351.00
2019-01-29T03:11:47.193Z,94348.00
2019-01-29T03:14:17.054Z,94358.00
2019-01-29T03:16:47.197Z,94349.00
2019-01-29T03:19:18.389Z,94347.00
2019-01-29T03:21:49.367Z,94356.00
2019-01-29T03:24:19.318Z,94344.00
2019-01-29T03:26:49.303Z,94364.00
2019-01-29T03:29:19.269Z,94370.00
2019-01-29T03:31:49.137Z,94368.00
2019-01-29T03:34:19.166Z,94382.00
2019-01-29T03:36:49.118Z,94371.00
2019-01-29T03:39:19.040Z,94382.00
2019-01-29T03:41:49.033Z,94380.00
2019-01-29T03:44:19.085Z,94392.00
2019-01-29T03:46:49.016Z,94388.00
2019-01-29T03:49:18.941Z,94382.00
2019-01-29T03:51:48.982Z,94387.00
2019-01-29T03:54:20.023Z,94395.00
2019-01-29T03:56:50.098Z,94384.00
2019-01-29T03:59:20.201Z,94390.00
2019-01-29T04:01:50.123Z,94401.00
2019-01-29T04:04:20.020Z,94399.00
2019-01-29T04:06:50.134Z,94394.00
2019-01-29T04:09:20.307Z,94404.00
2019-01-29T04:11:50.215Z,94396.00
2019-01-29T04:14:20.222Z,94419.00
2019-01-29T04:16:50.182Z,94406.00
2019-01-29T04:19:20.156Z,94412.00
2019-01-29T04:21:50.095Z,94418.00
2019-01-29T04:24:20.063Z,94415.00
2019-01-29T04:26:50.673Z,94416.00
2019-01-29T04:29:20.537Z,94427.00
2019-01-29T04:31:50.540Z,94425.00
2019-01-29T04:34:20.420Z,94428.00
2019-01-29T04:36:50.318Z,94436.00
2019-01-29T04:39:20.227Z,94425.00
2019-01-29T04:41:50.280Z,94421.00
2019-01-29T04:44:20.278Z,94425.00
2019-01-29T04:46:50.124Z,94427.00
2019-01-29T04:49:19.996Z,94428.00
2019-01-29T04:51:51.125Z,94413.00
2019-01-29T04:54:21.088Z,94421.00
2019-01-29T04:56:51.086Z,94439.00
2019-01-29T04:59:21.074Z,94432.00
2019-01-29T05:01:51.277Z,94440.00
2019-01-29T05:04:21.386Z,94436.00
2019-01-29T05:06:51.289Z,94441.00
2019-01-29T05:09:21.263Z,94433.00
2019-01-29T05:11:51.163Z,94438.00
2019-01-29T05:14:21.078Z,94446.00
2019-01-29T05:16:57.155Z,94445.00
2019-01-29T05:19:27.406Z,94447.00
2019-01-29T05:21:57.426Z,94444.00
2019-01-29T05:24:27.490Z,94446.00
2019-01-29T05:26:57.546Z,94446.00
2019-01-29T05:29:27.512Z,94447.00
2019-01-29T05:31:57.510Z,94438.00
2019-01-29T05:34:27.555Z,94446.00
2019-01-29T05:36:57.572Z,94442.00
2019-01-29T05:39:27.548Z,94461.00
2019-01-29T05:41:59.218Z,94449.00
2019-01-29T05:44:29.272Z,94448.00
2019-01-29T05:46:59.264Z,94462.00
2019-01-29T05:49:29.160Z,94458.00
2019-01-29T05:51:59.196Z,94472.00
2019-01-29T05:54:29.073Z,94463.00
2019-01-29T05:56:59.076Z,94474.00
2019-01-29T05:59:28.973Z,94477.00
2019-01-29T06:01:58.952Z,94485.00
2019-01-29T06:04:29.013Z,94480.00
2019-01-29T06:06:59.826Z,94473.00
2019-01-29T06:09:29.741Z,94479.00
2019-01-29T06:11:59.638Z,94479.00
2019-01-29T06:14:29.512Z,94479.00
2019-01-29T06:16:59.418Z,94482.00
2019-01-29T06:19:29.501Z,94484.00
2019-01-29T06:21:59.472Z,94493.00
2019-01-29T06:24:29.388Z,94491.00
2019-01-29T06:26:59.341Z,94492.00
2019-01-29T06:29:29.315Z,94503.00
2019-01-29T06:31:59.298Z,94490.00
2019-01-29T06:34:29.184Z,94498.00
2019-01-29T06:36:59.069Z,94495.00
2019-01-29T06:39:29.117Z,94508.00
2019-01-29T06:41:59.162Z,94501.00
2019-01-29T06:44:29.192Z,94493.00
2019-01-29T06:46:59.085Z,94506.00
2019-01-29T06:49:28.983Z,94520.00
2019-01-29T06:51:58.864Z,94517.00
2019-01-29T06:54:34.033Z,94512.00
2019-01-29T06:57:00.417Z,94524.00
2019-01-29T06:59:30.484Z,94517.00
2019-01-29T07:02:00.523Z,94518.00
2019-01-29T07:04:30.535Z,94527.00
2019-01-29T07:07:00.569Z,94524.00
2019-01-29T07:09:30.613Z,94520.00
2019-01-29T07:12:02.940Z,94533.00
2019-01-29T07:14:33.473Z,94528.00
2019-01-29T07:17:16.177Z,94528.00
2019-01-29T07:19:49.000Z,94531.00
2019-01-29T07:22:19.146Z,94548.00
2019-01-29T07:24:49.135Z,94541.00
2019-01-29T07:27:19.078Z,94543.00
2019-01-29T07:29:48.967Z,94545.00
2019-01-29T07:32:19.067Z,94545.00
2019-01-29T07:34:48.950Z,94555.00
2019-01-29T07:37:22.018Z,94551.00
2019-01-29T07:39:50.910Z,94559.00
2019-01-29T07:42:20.962Z,94553.00
2019-01-29T07:44:51.073Z,94563.00
2019-01-29T07:47:20.985Z,94550.00
2019-01-29T07:49:50.877Z,94545.00
2019-01-29T07:52:21.050Z,94542.00
2019-01-29T07:54:51.506Z,94553.00
2019-01-29T07:57:22.555Z,94549.00
2019-01-29T07:59:52.526Z,94547.00
2019-01-29T08:02:22.582Z,94549.00
2019-01-29T08:04:52.595Z,94549.00
2019-01-29T08:07:22.586Z,94560.00
2019-01-29T08:09:52.580Z,94559.00
2019-01-29T08:12:22.455Z,94563.00
2019-01-29T08:14:52.684Z,94559.00
2019-01-29T08:17:22.783Z,94561.00
2019-01-29T08:19:52.782Z,94570.00
2019-01-29T08:22:23.071Z,94572.00
2019-01-29T08:25:01.217Z,94562.00
2019-01-29T08:27:24.921Z,94569.00
2019-01-29T08:29:55.760Z,94554.00
2019-01-29T08:32:25.773Z,94565.00
2019-01-29T08:34:55.812Z,94567.00
2019-01-29T08:37:25.713Z,94566.00
2019-01-29T08:39:55.591Z,94579.00
2019-01-29T08:42:25.536Z,94559.00
2019-01-29T08:44:55.522Z,94561.00
2019-01-29T08:47:25.516Z,94561.00
2019-01-29T08:49:55.412Z,94561.00
2019-01-29T08:52:25.321Z,94564.00
2019-01-29T08:54:55.213Z,94574.00
2019-01-29T08:57:25.308Z,94565.00
2019-01-29T08:59:55.242Z,94556.00
2019-01-29T09:02:25.260Z,94573.00
2019-01-29T09:04:56.476Z,94583.00
2019-01-29T09:07:26.416Z,94556.00
2019-01-29T09:09:56.384Z,94571.00
2019-01-29T09:12:27.385Z,94561.00
2019-01-29T09:14:57.337Z,94554.00
2019-01-29T09:17:27.459Z,94568.00
2019-01-29T09:19:57.337Z,94567.00
2019-01-29T09:22:27.322Z,94577.00
2019-01-29T09:24:57.567Z,94590.00
2019-01-29T09:27:27.545Z,94581.00
2019-01-29T09:29:57.493Z,94571.00
2019-01-29T09:32:27.587Z,94562.00
2019-01-29T09:34:57.471Z,94568.00
2019-01-29T09:37:30.225Z,94559.00
2019-01-29T09:40:00.475Z,94557.00
2019-01-29T09:42:30.725Z,94562.00
2019-01-29T09:45:00.601Z,94551.00
2019-01-29T09:47:30.562Z,94562.00
2019-01-29T09:50:00.449Z,94548.00
2019-01-29T09:52:30.360Z,94547.00
2019-01-29T09:55:01.593Z,94560.00
2019-01-29T09:57:31.551Z,94555.00
2019-01-29T10:00:01.460Z,94559.00
2019-01-29T10:02:31.429Z,94552.00
2019-01-29T10:05:01.400Z,94539.00
2019-01-29T10:07:31.385Z,94542.00
2019-01-29T10:10:01.333Z,94542.00
2019-01-29T10:12:31.268Z,94542.00
2019-01-29T10:15:01.385Z,94520.00
2019-01-29T10:17:31.934Z,94523.00
2019-01-29T10:20:03.343Z,94520.00
2019-01-29T10:22:33.436Z,94511.00
2019-01-29T10:25:03.860Z,94519.00
2019-01-29T10:27:33.778Z,94507.00
2019-01-29T10:30:04.008Z,94499.00
2019-01-29T10:32:34.003Z,94501.00
2019-01-29T10:35:04.920Z,94497.00
2019-01-29T10:37:35.010Z,94498.00
2019-01-29T10:40:06.645Z,94497.00
2019-01-29T10:42:36.865Z,94498.00
2019-01-29T10:45:08.709Z,94482.00
2019-01-29T10:47:38.725Z,94488.00
2019-01-29T10:50:12.404Z,94480.00
2019-01-29T10:52:44.145Z,94484.00
2019-01-29T10:55:14.336Z,94481.00
2019-01-29T10:57:44.807Z,94484.00
2019-01-29T11:00:18.905Z,94481.00
2019-01-29T11:02:51.620Z,94467.00
2019-01-29T11:05:22.375Z,94464.00
2019-01-29T11:07:52.524Z,94451.00
2019-01-29T11:10:22.740Z,94448.00
2019-01-29T11:12:53.170Z,94453.00
2019-01-29T11:15:32.018Z,94435.00
2019-01-29T11:18:02.748Z,94439.00
2019-01-29T11:20:33.937Z,94432.00
2019-01-29T11:23:03.963Z,94440.00
2019-01-29T11:25:34.503Z,94436.00
2019-01-29T11:28:05.059Z,94425.00
2019-01-29T11:30:35.702Z,94429.00
2019-01-29T11:33:07.224Z,94422.00
2019-01-29T11:35:37.628Z,94426.00
2019-01-29T11:38:07.657Z,94418.00
2019-01-29T11:40:37.893Z,94413.00
2019-01-29T11:43:08.391Z,94412.00
2019-01-29T11:45:42.870Z,94407.00
2019-01-29T11:48:12.957Z,94412.00
2019-01-29T11:50:43.087Z,94401.00
2019-01-29T11:53:13.323Z,94402.00
2019-01-29T11:55:43.507Z,94399.00
2019-01-29T11:58:13.633Z,94390.00
2019-01-29T12:00:50.641Z,94385.00
2019-01-29T12:03:21.329Z,94373.00
2019-01-29T12:05:51.473Z,94356.00
2019-01-29T12:08:21.571Z,94369.00
2019-01-29T12:10:52.303Z,94368.00
2019-01-29T12:13:22.374Z,94370.00
2019-01-29T12:15:52.508Z,94363.00
2019-01-29T12:18:22.561Z,94358.00
2019-01-29T12:20:52.600Z,94363.00
2019-01-29T12:23:22.752Z,94356.00
2019-01-29T12:25:52.843Z,94347.00
2019-01-29T12:28:24.080Z,94348.00
2019-01-29T12:30:54.156Z,94353.00
2019-01-29T12:33:24.341Z,94337.00
2019-01-29T12:36:00.295Z,94338.00
2019-01-29T12:38:35.154Z,94341.00
2019-01-29T12:41:07.931Z,94333.00
2019-01-29T12:43:39.059Z,94327.00
2019-01-29T12:46:09.623Z,94325.00
2019-01-29T12:48:40.402Z,94339.00
2019-01-29T12:51:28.760Z,94327.00
2019-01-29T12:54:03.860Z,94320.00
2019-01-29T12:56:34.376Z,94321.00
2019-01-29T12:59:06.701Z,94317.00
2019-01-29T13:01:40.595Z,94317.00
2019-01-29T13:04:11.016Z,94322.00
2019-01-29T13:06:40.987Z,94315.00
2019-01-29T13:09:11.809Z,94304.00
2019-01-29T13:11:41.763Z,94311.00
2019-01-29T13:14:11.876Z,94301.00
2019-01-29T13:16:41.964Z,94297.00
2019-01-29T13:19:11.991Z,94299.00
2019-01-29T13:21:41.945Z,94292.00
2019-01-29T13:24:11.906Z,94287.00
2019-01-29T13:26:41.889Z,94292.00
2019-01-29T13:29:13.218Z,94289.00
2019-01-29T13:31:43.214Z,94278.00
2019-01-29T13:34:13.246Z,94275.00
2019-01-29T13:36:43.488Z,94261.00
2019-01-29T13:39:13.586Z,94269.00
2019-01-29T13:41:43.706Z,94259.00
2019-01-29T13:44:13.815Z,94250.00
2019-01-29T13:46:43.906Z,94254.00
2019-01-29T13:49:13.974Z,94249.00
2019-01-29T13:51:44.027Z,94266.00
2019-01-29T13:54:15.309Z,94256.00
2019-01-29T13:56:45.397Z,94261.00
2019-01-29T13:59:15.520Z,94242.00
2019-01-29T14:01:45.580Z,94245.00
2019-01-29T14:04:15.612Z,94243.00
2019-01-29T14:06:45.649Z,94238.00
2019-01-29T14:09:15.569Z,94234.00
2019-01-29T14:11:45.592Z,94235.00
2019-01-29T14:14:15.528Z,94222.00
2019-01-29T14:16:45.424Z,94230.00
2019-01-29T14:19:17.681Z,94220.00
2019-01-29T14:21:47.770Z,94223.00
2019-01-29T14:24:18.332Z,94220.00
2019-01-29T14:26:48.334Z,94215.00
2019-01-29T14:29:18.704Z,94221.00
2019-01-29T14:31:48.788Z,94229.00
2019-01-29T14:34:18.837Z,94225.00
2019-01-29T14:36:48.692Z,94222.00
2019-01-29T14:39:24.627Z,94203.00
2019-01-29T14:41:54.665Z,94213.00
2019-01-29T14:44:29.992Z,94211.00
2019-01-29T14:46:59.935Z,94209.00
2019-01-29T14:49:30.024Z,94201.00
2019-01-29T14:51:59.927Z,94205.00
2019-01-29T14:54:29.985Z,94205.00
2019-01-29T14:56:59.999Z,94207.00
2019-01-29T14:59:29.949Z,94208.00
2019-01-29T15:02:00.049Z,94190.00
2019-01-29T15:04:30.071Z,94194.00
2019-01-29T15:06:59.965Z,94183.00
2019-01-29T15:09:29.862Z,94181.00
2019-01-29T15:11:59.800Z,94195.00
2019-01-29T15:14:29.707Z,94190.00
2019-01-29T15:17:17.543Z,94179.00
2019-01-29T15:19:48.205Z,94164.00
2019-01-29T15:22:18.587Z,94166.00
2019-01-29T15:24:48.486Z,94162.00
2019-01-29T15:27:18.541Z,94159.00
2019-01-29T15:29:48.467Z,94161.00
2019-01-29T15:32:18.451Z,94165.00
2019-01-29T15:34:48.404Z,94166.00
2019-01-29T15:37:18.699Z,94168.00
2019-01-29T15:39:48.732Z,94160.00
2019-01-29T15:42:18.777Z,94156.00
2019-01-29T15:44:48.678Z,94159.00
2019-01-29T15:47:18.665Z,94152.00
2019-01-29T15:49:48.555Z,94156.00
2019-01-29T15:52:18.525Z,94166.00
2019-01-29T15:54:48.469Z,94163.00
2019-01-29T15:57:18.431Z,94145.00
2019-01-29T15:59:48.315Z,94165.00
2019-01-29T16:02:19.509Z,94157.00
2019-01-29T16:04:49.589Z,94144.00
2019-01-29T16:07:19.466Z,94150.00
2019-01-29T16:09:49.380Z,94141.00
2019-01-29T16:12:19.357Z,94130.00
2019-01-29T16:14:49.356Z,94117.00
2019-01-29T16:17:19.224Z,94121.00
2019-01-29T16:19:49.251Z,94125.00
2019-01-29T16:22:19.214Z,94116.00
2019-01-29T16:24:49.092Z,94117.00
2019-01-29T16:27:22.718Z,94099.00
2019-01-29T16:29:50.614Z,94114.00
2019-01-29T16:32:20.525Z,94109.00
2019-01-29T16:34:50.382Z,94109.00
2019-01-29T16:37:20.396Z,94110.00
2019-01-29T16:39:50.330Z,94111.00
2019-01-29T16:42:20.221Z,94103.00
2019-01-29T16:44:50.109Z,94105.00
2019-01-29T16:47:20.209Z,94099.00
2019-01-29T16:49:50.154Z,94105.00
2019-01-29T16:52:20.134Z,94100.00
2019-01-29T16:54:50.025Z,94097.00
2019-01-29T16:57:19.977Z,94090.00
2019-01-29T16:59:49.882Z,94088.00
2019-01-29T17:02:19.983Z,94090.00
2019-01-29T17:04:50.041Z,94097.00
2019-01-29T17:07:20.100Z,94081.00
2019-01-29T17:09:50.066Z,94080.00
2019-01-29T17:12:20.052Z,94082.00
2019-01-29T17:14:50.096Z,94080.00
2019-01-29T17:17:20.007Z,94072.00
2019-01-29T17:19:50.011Z,94059.00
2019-01-29T17:22:20.814Z,94059.00
2019-01-29T17:24:52.033Z,94058.00
2019-01-29T17:27:21.928Z,94057.00
2019-01-29T17:29:51.996Z,94052.00
2019-01-29T17:32:30.062Z,94044.00
2019-01-29T17:34:53.627Z,94034.00
2019-01-29T17:37:24.880Z,94041.00
2019-01-29T17:39:54.939Z,94034.00
2019-01-29T17:42:24.959Z,94034.00
2019-01-29T17:44:54.943Z,94032.00
2019-01-29T17:47:24.822Z,94032.00
2019-01-29T17:49:55.812Z,94030.00
2019-01-29T17:52:25.902Z,94031.00
2019-01-29T17:54:55.943Z,94038.00
2019-01-29T17:57:25.912Z,94027.00
2019-01-29T17:59:55.863Z,94037.00
2019-01-29T18:02:26.017Z,94028.00
2019-01-29T18:04:56.029Z,94016.00
2019-01-29T18:07:25.999Z,94027.00
2019-01-29T18:09:55.967Z,94029.00
2019-01-29T18:12:25.864Z,94012.00
2019-01-29T18:14:57.088Z,94016.00
2019-01-29T18:17:27.062Z,94006.00
2019-01-29T18:19:56.993Z,94000.00
2019-01-29T18:22:27.037Z,94006.00
2019-01-29T18:24:57.043Z,94004.00
2019-01-29T18:27:26.926Z,93994.00
2019-01-29T18:29:56.881Z,93988.00
2019-01-29T18:32:29.717Z,93988.00
2019-01-29T18:34:59.626Z,93991.00
2019-01-29T18:37:29.601Z,93989.00
2019-01-29T18:40:00.898Z,93988.00
2019-01-29T18:42:31.344Z,93980.00
2019-01-29T18:45:01.263Z,93980.00
2019-01-29T18:47:31.286Z,93973.00
2019-01-29T18:50:01.689Z,93978.00
2019-01-29T18:52:33.188Z,93968.00
2019-01-29T18:55:05.690Z,93956.00
2019-01-29T18:57:36.969Z,93963.00
2019-01-29T19:00:13.083Z,93947.00
2019-01-29T19:02:43.125Z,93948.00
2019-01-29T19:05:13.894Z,93940.00
2019-01-29T19:07:44.863Z,93930.00
2019-01-29T19:10:17.523Z,93928.00
2019-01-29T19:12:49.666Z,93929.00
2019-01-29T19:15:22.752Z,93920.00
2019-01-29T19:17:52.909Z,93920.00
2019-01-29T19:20:25.053Z,93919.00
2019-01-29T19:22:55.411Z,93903.00
2019-01-29T19:25:25.507Z,93907.00
2019-01-29T19:27:55.589Z,93893.00
2019-01-29T19:30:29.234Z,93890.00
2019-01-29T19:33:01.557Z,93887.00
2019-01-29T19:35:32.317Z,93880.00
2019-01-29T19:38:02.379Z,93888.00
2019-01-29T19:40:33.411Z,93878.00
2019-01-29T19:43:03.514Z,93877.00
2019-01-29T19:45:34.935Z,93878.00
2019-01-29T19:48:06.673Z,93863.00
2019-01-29T19:50:40.091Z,93867.00
2019-01-29T19:53:10.603Z,93854.00
2019-01-29T19:55:40.831Z,93868.00
2019-01-29T19:58:11.011Z,93849.00
2019-01-29T20:00:43.445Z,93846.00
2019-01-29T20:03:13.407Z,93845.00
2019-01-29T20:05:45.353Z,93829.00
2019-01-29T20:08:15.209Z,93828.00
2019-01-29T20:10:45.296Z,93826.00
2019-01-29T20:13:15.355Z,93834.00
2019-01-29T20:15:45.364Z,93815.00
2019-01-29T20:18:15.708Z,93814.00
2019-01-29T20:20:45.777Z,93816.00
2019-01-29T20:23:16.749Z,93818.00
2019-01-29T20:25:48.014Z,93808.00
2019-01-29T20:28:21.670Z,93806.00
2019-01-29T20:30:53.624Z,93811.00
2019-01-29T20:33:24.065Z,93806.00
2019-01-29T20:35:55.387Z,93806.00
2019-01-29T20:38:25.930Z,93796.00
2019-01-29T20:40:57.359Z,93800.00
2019-01-29T20:43:27.386Z,93781.00
2019-01-29T20:45:57.338Z,93786.00
2019-01-29T20:48:28.630Z,93774.00
2019-01-29T20:50:58.723Z,93777.00
2019-01-29T20:53:28.699Z,93768.00
2019-01-29T20:55:58.648Z,93779.00
2019-01-29T20:58:28.558Z,93777.00
2019-01-29T21:00:58.631Z,93766.00
2019-01-29T21:03:28.788Z,93760.00
2019-01-29T21:05:59.896Z,93750.00
2019-01-29T21:08:29.851Z,93752.00
2019-01-29T21:10:59.992Z,93748.00
2019-01-29T21:13:32.756Z,93733.00
2019-01-29T21:16:02.881Z,93741.00
2019-01-29T21:18:33.242Z,93748.00
2019-01-29T21:21:03.291Z,93730.00
2019-01-29T21:23:33.203Z,93733.00
2019-01-29T21:26:03.178Z,93718.00
2019-01-29T21:28:33.077Z,93715.00
2019-01-29T21:31:04.615Z,93703.00
2019-01-29T21:33:34.499Z,93704.00
2019-01-29T21:36:04.812Z,93705.00
2019-01-29T21:38:34.720Z,93694.00
2019-01-29T21:41:04.818Z,93684.00
2019-01-29T21:43:34.780Z,93676.00
2019-01-29T21:46:05.044Z,93685.00
2019-01-29T21:48:35.046Z,93681.00
2019-01-29T21:51:05.912Z,93685.00
2019-01-29T21:53:35.840Z,93673.00
2019-01-29T21:56:08.579Z,93673.00
2019-01-29T21:58:38.976Z,93682.00
2019-01-29T22:01:09.035Z,93655.00
2019-01-29T22:03:39.007Z,93654.00
2019-01-29T22:06:09.088Z,93650.00
2019-01-29T22:08:39.088Z,93654.00
2019-01-29T22:11:09.013Z,93652.00
2019-01-29T22:13:39.031Z,93657.00
2019-01-29T22:16:09.148Z,93644.00
2019-01-29T22:18:39.225Z,93642.00
2019-01-29T22:21:09.188Z,93648.00
2019-01-29T22:23:39.386Z,93633.00
2019-01-29T22:26:09.382Z,93633.00
2019-01-29T22:28:39.247Z,93620.00
2019-01-29T22:31:09.219Z,93628.00
2019-01-29T22:33:39.259Z,93618.00
2019-01-29T22:36:09.419Z,93619.00
2019-01-29T22:38:40.356Z,93621.00
2019-01-29T22:41:10.242Z,93621.00
2019-01-29T22:43:40.154Z,93611.00
2019-01-29T22:46:10.152Z,93603.00
2019-01-29T22:48:40.117Z,93601.00
2019-01-29T22:51:10.037Z,93589.00
2019-01-29T22:53:39.951Z,93607.00
2019-01-29T22:56:09.957Z,93583.00
2019-01-29T22:58:40.017Z,93581.00
2019-01-29T23:01:37.678Z,93580.00
2019-01-29T23:04:23.331Z,93573.00
2019-01-29T23:07:01.331Z,93578.00
2019-01-29T23:09:31.301Z,93569.00
2019-01-29T23:12:01.293Z,93564.00
2019-01-29T23:14:31.221Z,93565.00
2019-01-29T23:17:01.278Z,93538.00
2019-01-29T23:19:31.317Z,93543.00
2019-01-29T23:22:01.448Z,93530.00
2019-01-29T23:24:31.374Z,93532.00
2019-01-29T23:27:01.408Z,93534.00
2019-01-29T23:29:31.423Z,93527.00
2019-01-29T23:32:01.301Z,93531.00
2019-01-29T23:34:31.327Z,93515.00
2019-01-29T23:37:01.327Z,93525.00
2019-01-29T23:39:31.244Z,93534.00
2019-01-29T23:42:01.337Z,93513.00
2019-01-29T23:44:31.322Z,93524.00
2019-01-29T23:47:01.187Z,93510.00
2019-01-29T23:49:31.084Z,93512.00
2019-01-29T23:52:01.646Z,93499.00
2019-01-29T23:54:31.623Z,93491.00
2019-01-29T23:57:02.713Z,93506.00
2019-01-29T23:59:32.631Z,93481.00
